createdAt,value
2019-01-15T00:00:32.442Z,1.28
2019-01-15T00:01:42.541Z,1.21
2019-01-15T00:02:52.389Z,1.15
2019-01-15T00:04:02.507Z,1.21
2019-01-15T00:05:12.613Z,1.11
2019-01-15T00:06:22.729Z,1.18
2019-01-15T00:07:32.857Z,1.14
2019-01-15T00:08:42.951Z,1.17
2019-01-15T00:09:53.085Z,1.12
2019-01-15T00:11:03.209Z,0.99
2019-01-15T00:12:12.950Z,1.04
2019-01-15T00:13:22.803Z,1.11
2019-01-15T00:14:32.896Z,1
2019-01-15T00:15:43.005Z,1.03
2019-01-15T00:16:53.113Z,1
2019-01-15T00:18:03.215Z,1
2019-01-15T00:19:13.341Z,1.03
2019-01-15T00:20:23.454Z,0.99
2019-01-15T00:21:33.563Z,1.03
2019-01-15T00:22:43.669Z,1.03
2019-01-15T00:23:53.797Z,1
2019-01-15T00:25:03.892Z,1.06
2019-01-15T00:26:14.004Z,1.02
2019-01-15T00:27:24.107Z,1.04
2019-01-15T00:28:34.213Z,1.03
2019-01-15T00:29:44.325Z,1.06
2019-01-15T00:30:54.431Z,0.97
2019-01-15T00:32:04.553Z,1.04
2019-01-15T00:33:14.670Z,0.99
2019-01-15T00:34:24.568Z,0.99
2019-01-15T00:35:34.675Z,0.99
2019-01-15T00:36:44.781Z,1.02
2019-01-15T00:37:54.875Z,0.99
2019-01-15T00:39:04.975Z,1.02
2019-01-15T00:40:15.106Z,0.97
2019-01-15T00:41:25.220Z,0.97
2019-01-15T00:42:35.315Z,0.97
2019-01-15T00:43:45.465Z,0.96
2019-01-15T00:44:55.584Z,0.97
2019-01-15T00:46:05.809Z,0.96
2019-01-15T00:47:16.022Z,0.99
2019-01-15T00:48:26.133Z,0.92
2019-01-15T00:49:36.255Z,0.97
2019-01-15T00:50:46.354Z,0.96
2019-01-15T00:51:56.450Z,0.96
2019-01-15T00:53:06.544Z,0.99
2019-01-15T00:54:16.436Z,1
2019-01-15T00:55:26.541Z,0.99
2019-01-15T00:56:36.636Z,1.02
2019-01-15T00:57:46.752Z,1.04
2019-01-15T00:58:56.844Z,1.02
2019-01-15T01:00:06.948Z,0.88
2019-01-15T01:01:17.042Z,0.96
2019-01-15T01:02:27.141Z,1.03
2019-01-15T01:03:37.239Z,0.86
2019-01-15T01:04:47.342Z,0.94
2019-01-15T01:05:57.443Z,0.88
2019-01-15T01:07:07.556Z,0.97
2019-01-15T01:08:17.654Z,1.04
2019-01-15T01:09:27.844Z,0.99
2019-01-15T01:10:37.947Z,0.99
2019-01-15T01:11:47.784Z,1
2019-01-15T01:12:57.887Z,0.97
2019-01-15T01:14:07.986Z,0.97
2019-01-15T01:15:18.089Z,1
2019-01-15T01:16:28.188Z,0.97
2019-01-15T01:17:38.285Z,1
2019-01-15T01:18:48.494Z,1
2019-01-15T01:19:58.602Z,0.99
2019-01-15T01:21:08.696Z,1.03
2019-01-15T01:22:18.808Z,1
2019-01-15T01:23:29.117Z,1.08
2019-01-15T01:24:39.223Z,1.04
2019-01-15T01:25:49.318Z,1.04
2019-01-15T01:26:59.440Z,1.04
2019-01-15T01:28:09.278Z,1.03
2019-01-15T01:29:19.413Z,0.99
2019-01-15T01:30:29.518Z,1.02
2019-01-15T01:31:39.624Z,1.1
2019-01-15T01:32:49.737Z,1.06
2019-01-15T01:33:59.823Z,1
2019-01-15T01:35:09.929Z,1.02
2019-01-15T01:36:20.025Z,1.03
2019-01-15T01:37:30.127Z,1.03
2019-01-15T01:38:39.984Z,1.02
2019-01-15T01:39:50.093Z,1.14
2019-01-15T01:41:00.201Z,1.15
2019-01-15T01:42:09.685Z,1.12
2019-01-15T01:43:19.840Z,1.11
2019-01-15T01:44:29.945Z,1.1
2019-01-15T01:45:40.060Z,1.18
2019-01-15T01:46:50.160Z,1.17
2019-01-15T01:48:00.002Z,1.21
2019-01-15T01:49:10.113Z,1.14
2019-01-15T01:50:20.206Z,1.21
2019-01-15T01:51:30.362Z,1.22
2019-01-15T01:52:40.471Z,1.21
2019-01-15T01:53:50.578Z,1.22
2019-01-15T01:55:00.672Z,1.24
2019-01-15T01:56:10.783Z,1.29
2019-01-15T01:57:20.873Z,1.22
2019-01-15T01:58:30.991Z,1.25
2019-01-15T01:59:41.082Z,1.21
2019-01-15T02:00:51.178Z,1.22
2019-01-15T02:02:01.277Z,1.22
2019-01-15T02:03:11.368Z,1.22
2019-01-15T02:04:21.550Z,1.3
2019-01-15T02:05:31.647Z,1.3
2019-01-15T02:06:41.749Z,1.33
2019-01-15T02:07:51.853Z,1.32
2019-01-15T02:09:01.965Z,1.33
2019-01-15T02:10:12.061Z,1.32
2019-01-15T02:11:21.911Z,1.38
2019-01-15T02:12:39.234Z,1.29
2019-01-15T02:13:49.788Z,1.36
2019-01-15T02:14:59.884Z,1.33
2019-01-15T02:16:09.988Z,1.33
2019-01-15T02:17:20.083Z,1.36
2019-01-15T02:18:30.167Z,1.33
2019-01-15T02:19:40.264Z,1.42
2019-01-15T02:20:50.371Z,1.39
2019-01-15T02:22:00.483Z,1.38
2019-01-15T02:23:10.584Z,1.43
2019-01-15T02:24:20.188Z,1.43
2019-01-15T02:25:30.287Z,1.39
2019-01-15T02:26:40.393Z,1.48
2019-01-15T02:27:50.271Z,1.46
2019-01-15T02:29:00.225Z,1.39
2019-01-15T02:30:10.337Z,1.42
2019-01-15T02:31:20.447Z,1.54
2019-01-15T02:32:30.545Z,1.5
2019-01-15T02:33:40.641Z,1.57
2019-01-15T02:34:50.563Z,1.4
2019-01-15T02:36:00.682Z,1.53
2019-01-15T02:37:10.782Z,1.5
2019-01-15T02:38:20.866Z,1.5
2019-01-15T02:39:30.983Z,1.47
2019-01-15T02:40:41.074Z,1.5
2019-01-15T02:41:50.914Z,1.5
2019-01-15T02:43:01.009Z,1.5
2019-01-15T02:44:11.110Z,1.53
2019-01-15T02:45:21.203Z,1.53
2019-01-15T02:46:31.323Z,1.53
2019-01-15T02:47:41.438Z,1.43
2019-01-15T02:48:51.551Z,1.38
2019-01-15T02:50:01.659Z,1.48
2019-01-15T02:51:11.773Z,1.43
2019-01-15T02:52:21.871Z,1.54
2019-01-15T02:53:31.726Z,1.5
2019-01-15T02:54:42.556Z,1.58
2019-01-15T02:55:52.692Z,1.43
2019-01-15T02:57:02.798Z,1.54
2019-01-15T02:58:12.904Z,1.54
2019-01-15T02:59:23.000Z,1.57
2019-01-15T03:00:33.105Z,1.55
2019-01-15T03:01:43.224Z,1.6
2019-01-15T03:02:53.326Z,1.5
2019-01-15T03:04:03.430Z,1.54
2019-01-15T03:05:13.553Z,1.51
2019-01-15T03:06:23.656Z,1.53
2019-01-15T03:07:33.827Z,1.5
2019-01-15T03:08:43.980Z,1.48
2019-01-15T03:09:54.084Z,1.58
2019-01-15T03:11:04.197Z,1.48
2019-01-15T03:12:14.295Z,1.66
2019-01-15T03:13:24.406Z,1.5
2019-01-15T03:14:34.516Z,1.54
2019-01-15T03:15:44.643Z,1.5
2019-01-15T03:16:54.755Z,1.55
2019-01-15T03:18:04.609Z,1.57
2019-01-15T03:19:14.729Z,1.53
2019-01-15T03:20:24.837Z,1.48
2019-01-15T03:21:34.688Z,1.48
2019-01-15T03:22:44.789Z,1.53
2019-01-15T03:23:55.105Z,1.5
2019-01-15T03:25:05.240Z,1.55
2019-01-15T03:26:15.344Z,1.53
2019-01-15T03:27:25.459Z,1.53
2019-01-15T03:28:35.564Z,1.55
2019-01-15T03:29:45.664Z,1.53
2019-01-15T03:30:55.785Z,1.51
2019-01-15T03:32:05.973Z,1.51
2019-01-15T03:33:16.076Z,1.53
2019-01-15T03:34:26.221Z,1.55
2019-01-15T03:35:36.325Z,1.6
2019-01-15T03:36:46.430Z,1.53
2019-01-15T03:37:56.545Z,1.6
2019-01-15T03:39:06.644Z,1.5
2019-01-15T03:40:16.756Z,1.64
2019-01-15T03:41:26.919Z,1.51
2019-01-15T03:42:37.030Z,1.48
2019-01-15T03:43:47.129Z,1.53
2019-01-15T03:44:57.242Z,1.55
2019-01-15T03:46:09.431Z,1.64
2019-01-15T03:47:20.514Z,1.48
2019-01-15T03:48:30.633Z,1.53
2019-01-15T03:49:40.757Z,1.57
2019-01-15T03:50:50.909Z,1.57
2019-01-15T03:52:01.010Z,1.54
2019-01-15T03:53:11.107Z,1.5
2019-01-15T03:54:21.211Z,1.66
2019-01-15T03:55:31.317Z,1.54
2019-01-15T03:56:41.415Z,1.57
2019-01-15T03:57:51.514Z,1.57
2019-01-15T03:59:01.627Z,1.53
2019-01-15T04:00:11.736Z,1.69
2019-01-15T04:01:21.831Z,1.54
2019-01-15T04:02:31.935Z,1.55
2019-01-15T04:03:41.789Z,1.66
2019-01-15T04:04:51.624Z,1.51
2019-01-15T04:06:01.740Z,1.73
2019-01-15T04:07:11.857Z,1.66
2019-01-15T04:08:21.970Z,1.69
2019-01-15T04:09:32.069Z,1.55
2019-01-15T04:10:42.176Z,1.54
2019-01-15T04:11:52.294Z,1.67
2019-01-15T04:13:02.399Z,1.58
2019-01-15T04:14:19.010Z,1.58
2019-01-15T04:15:28.859Z,1.55
2019-01-15T04:16:38.973Z,1.5
2019-01-15T04:17:49.165Z,1.55
2019-01-15T04:18:59.304Z,1.55
2019-01-15T04:20:09.415Z,1.54
2019-01-15T04:21:19.518Z,1.54
2019-01-15T04:22:29.623Z,1.57
2019-01-15T04:23:39.929Z,1.57
2019-01-15T04:24:50.092Z,1.62
2019-01-15T04:26:00.440Z,1.64
2019-01-15T04:27:10.607Z,1.64
2019-01-15T04:28:20.732Z,1.58
2019-01-15T04:29:30.844Z,1.62
2019-01-15T04:30:40.958Z,1.55
2019-01-15T04:31:51.063Z,1.57
2019-01-15T04:33:00.923Z,1.57
2019-01-15T04:34:11.039Z,1.57
2019-01-15T04:35:21.154Z,1.62
2019-01-15T04:36:31.254Z,1.67
2019-01-15T04:37:41.370Z,1.57
2019-01-15T04:38:51.495Z,1.6
2019-01-15T04:40:01.608Z,1.57
2019-01-15T04:41:11.720Z,1.64
2019-01-15T04:42:21.817Z,1.62
2019-01-15T04:43:31.940Z,1.58
2019-01-15T04:44:42.064Z,1.58
2019-01-15T04:45:52.179Z,1.64
2019-01-15T04:47:02.293Z,1.62
2019-01-15T04:48:12.394Z,1.6
2019-01-15T04:49:22.510Z,1.62
2019-01-15T04:50:32.627Z,1.6
2019-01-15T04:51:42.728Z,1.67
2019-01-15T04:52:52.569Z,1.58
2019-01-15T04:54:02.696Z,1.55
2019-01-15T04:55:12.800Z,1.67
2019-01-15T04:56:22.940Z,1.62
2019-01-15T04:57:33.082Z,1.58
2019-01-15T04:58:43.177Z,1.6
2019-01-15T04:59:54.171Z,1.57
2019-01-15T05:01:04.277Z,1.69
2019-01-15T05:02:14.382Z,1.7
2019-01-15T05:03:24.513Z,1.66
2019-01-15T05:04:34.617Z,1.72
2019-01-15T05:05:44.715Z,1.72
2019-01-15T05:06:54.813Z,1.66
2019-01-15T05:08:04.910Z,1.57
2019-01-15T05:09:16.147Z,1.73
2019-01-15T05:10:26.256Z,1.74
2019-01-15T05:11:36.420Z,1.76
2019-01-15T05:12:46.526Z,1.7
2019-01-15T05:13:56.636Z,1.77
2019-01-15T05:15:06.758Z,1.76
2019-01-15T05:16:18.250Z,1.74
2019-01-15T05:17:28.352Z,1.7
2019-01-15T05:18:38.460Z,1.76
2019-01-15T05:19:48.571Z,1.77
2019-01-15T05:20:59.529Z,1.77
2019-01-15T05:22:09.649Z,1.74
2019-01-15T05:23:19.771Z,1.76
2019-01-15T05:24:29.618Z,1.82
2019-01-15T05:25:39.743Z,1.74
2019-01-15T05:26:49.857Z,1.79
2019-01-15T05:27:59.971Z,1.73
2019-01-15T05:29:09.741Z,1.79
2019-01-15T05:30:19.848Z,1.76
2019-01-15T05:31:29.955Z,1.74
2019-01-15T05:32:40.073Z,1.8
2019-01-15T05:33:50.279Z,1.72
2019-01-15T05:35:00.386Z,1.73
2019-01-15T05:36:10.511Z,1.73
2019-01-15T05:37:22.395Z,1.74
2019-01-15T05:38:32.248Z,1.72
2019-01-15T05:39:42.336Z,1.69
2019-01-15T05:40:52.448Z,1.58
2019-01-15T05:42:02.550Z,1.5
2019-01-15T05:43:12.674Z,1.53
2019-01-15T05:44:22.773Z,1.57
2019-01-15T05:45:32.631Z,1.53
2019-01-15T05:46:42.817Z,1.66
2019-01-15T05:47:52.911Z,1.67
2019-01-15T05:49:03.023Z,1.54
2019-01-15T05:50:13.126Z,1.48
2019-01-15T05:51:22.971Z,1.5
2019-01-15T05:52:33.077Z,1.53
2019-01-15T05:53:43.190Z,1.51
2019-01-15T05:54:53.299Z,1.58
2019-01-15T05:56:03.462Z,1.57
2019-01-15T05:57:14.555Z,1.51
2019-01-15T05:58:24.408Z,1.54
2019-01-15T05:59:34.510Z,1.54
2019-01-15T06:00:44.424Z,1.55
2019-01-15T06:01:54.522Z,1.58
2019-01-15T06:03:04.641Z,1.4
2019-01-15T06:04:14.747Z,1.48
2019-01-15T06:05:24.876Z,1.43
2019-01-15T06:06:34.978Z,1.5
2019-01-15T06:07:45.075Z,1.48
2019-01-15T06:08:55.190Z,1.47
2019-01-15T06:10:05.306Z,1.48
2019-01-15T06:11:15.420Z,1.58
2019-01-15T06:12:25.515Z,1.4
2019-01-15T06:13:42.437Z,1.38
2019-01-15T06:14:52.707Z,1.43
2019-01-15T06:16:02.871Z,1.43
2019-01-15T06:17:12.719Z,1.46
2019-01-15T06:18:22.816Z,1.42
2019-01-15T06:19:32.923Z,1.32
2019-01-15T06:20:43.020Z,1.46
2019-01-15T06:21:53.122Z,1.4
2019-01-15T06:23:04.941Z,1.46
2019-01-15T06:24:15.046Z,1.35
2019-01-15T06:25:25.144Z,1.35
2019-01-15T06:26:35.239Z,1.22
2019-01-15T06:27:45.334Z,1.17
2019-01-15T06:28:55.429Z,1.2
2019-01-15T06:30:05.548Z,1.24
2019-01-15T06:31:15.664Z,1.21
2019-01-15T06:32:25.751Z,1.15
2019-01-15T06:33:35.886Z,1.21
2019-01-15T06:34:46.022Z,1.24
2019-01-15T06:35:56.142Z,1.29
2019-01-15T06:37:06.275Z,1.2
2019-01-15T06:38:16.398Z,1.28
2019-01-15T06:39:26.659Z,1.22
2019-01-15T06:40:36.780Z,1.22
2019-01-15T06:41:46.881Z,1.32
2019-01-15T06:42:57.000Z,1.33
2019-01-15T06:44:07.105Z,1.25
2019-01-15T06:45:17.222Z,1.29
2019-01-15T06:46:27.327Z,1.24
2019-01-15T06:47:37.425Z,1.32
2019-01-15T06:48:47.531Z,1.33
2019-01-15T06:49:57.627Z,1.21
2019-01-15T06:51:07.732Z,1.22
2019-01-15T06:52:17.849Z,1.25
2019-01-15T06:53:27.954Z,1.18
2019-01-15T06:54:37.690Z,1.25
2019-01-15T06:55:47.801Z,1.22
2019-01-15T06:56:57.916Z,1.18
2019-01-15T06:58:08.253Z,1.28
2019-01-15T06:59:18.348Z,1.17
2019-01-15T07:00:28.450Z,1.24
2019-01-15T07:01:38.550Z,1.2
2019-01-15T07:02:48.406Z,1.18
2019-01-15T07:03:58.520Z,1.18
2019-01-15T07:05:08.617Z,1.22
2019-01-15T07:06:19.685Z,1.18
2019-01-15T07:07:29.784Z,1.22
2019-01-15T07:08:39.897Z,1.2
2019-01-15T07:09:50.494Z,1.22
2019-01-15T07:11:00.596Z,1.21
2019-01-15T07:12:10.712Z,1.2
2019-01-15T07:13:20.854Z,1.2
2019-01-15T07:14:30.956Z,1.25
2019-01-15T07:15:41.072Z,1.18
2019-01-15T07:16:51.407Z,1.21
2019-01-15T07:18:01.494Z,1.25
2019-01-15T07:19:11.603Z,1.28
2019-01-15T07:20:21.699Z,1.28
2019-01-15T07:21:31.811Z,1.22
2019-01-15T07:22:41.933Z,1.29
2019-01-15T07:23:52.058Z,1.2
2019-01-15T07:25:02.151Z,1.24
2019-01-15T07:26:12.264Z,1.21
2019-01-15T07:27:22.998Z,1.24
2019-01-15T07:28:32.848Z,1.17
2019-01-15T07:29:42.942Z,1.2
2019-01-15T07:30:53.048Z,1.21
2019-01-15T07:32:03.174Z,1.28
2019-01-15T07:33:13.266Z,1.15
2019-01-15T07:34:23.365Z,1.28
2019-01-15T07:35:33.682Z,1.2
2019-01-15T07:36:43.814Z,1.15
2019-01-15T07:37:53.924Z,1.14
2019-01-15T07:39:04.022Z,1.18
2019-01-15T07:40:14.125Z,1.25
2019-01-15T07:41:24.246Z,1.36
2019-01-15T07:42:34.346Z,1.32
2019-01-15T07:43:44.452Z,1.39
2019-01-15T07:44:54.550Z,1.38
2019-01-15T07:46:04.652Z,1.43
2019-01-15T07:47:14.772Z,1.4
2019-01-15T07:48:24.877Z,1.4
2019-01-15T07:49:34.968Z,1.39
2019-01-15T07:50:45.083Z,1.48
2019-01-15T07:51:55.196Z,1.51
2019-01-15T07:53:05.304Z,1.54
2019-01-15T07:54:15.149Z,1.47
2019-01-15T07:55:25.447Z,1.55
2019-01-15T07:56:35.554Z,1.55
2019-01-15T07:57:46.640Z,1.58
2019-01-15T07:58:56.747Z,1.55
2019-01-15T08:00:06.858Z,1.51
2019-01-15T08:01:16.962Z,1.51
2019-01-15T08:02:27.069Z,1.55
2019-01-15T08:03:37.170Z,1.55
2019-01-15T08:04:47.011Z,1.57
2019-01-15T08:05:57.631Z,1.55
2019-01-15T08:07:07.736Z,1.64
2019-01-15T08:08:17.851Z,1.74
2019-01-15T08:09:27.954Z,1.76
2019-01-15T08:10:38.078Z,1.7
2019-01-15T08:11:49.529Z,1.73
2019-01-15T08:12:59.635Z,1.77
2019-01-15T08:14:16.335Z,1.7
2019-01-15T08:15:26.445Z,1.87
2019-01-15T08:16:36.548Z,1.82
2019-01-15T08:17:46.680Z,1.82
2019-01-15T08:18:56.792Z,1.77
2019-01-15T08:20:06.893Z,1.85
2019-01-15T08:21:17.029Z,1.91
2019-01-15T08:22:27.154Z,1.9
2019-01-15T08:23:36.912Z,1.9
2019-01-15T08:24:47.024Z,1.9
2019-01-15T08:25:56.878Z,1.85
2019-01-15T08:27:06.985Z,1.85
2019-01-15T08:28:16.975Z,1.9
2019-01-15T08:29:26.724Z,1.8
2019-01-15T08:30:36.830Z,1.85
2019-01-15T08:31:46.932Z,1.94
2019-01-15T08:32:57.038Z,1.88
2019-01-15T08:34:07.141Z,1.91
2019-01-15T08:35:17.265Z,1.77
2019-01-15T08:36:28.622Z,1.8
2019-01-15T08:37:38.805Z,1.7
2019-01-15T08:38:48.680Z,1.7
2019-01-15T08:39:58.797Z,1.72
2019-01-15T08:41:08.903Z,1.84
2019-01-15T08:42:19.033Z,1.85
2019-01-15T08:43:29.195Z,1.84
2019-01-15T08:44:39.328Z,1.72
2019-01-15T08:45:49.437Z,1.74
2019-01-15T08:47:03.223Z,1.74
2019-01-15T08:48:13.342Z,1.74
2019-01-15T08:49:23.453Z,1.7
2019-01-15T08:50:33.558Z,1.76
2019-01-15T08:51:43.689Z,1.79
2019-01-15T08:52:53.809Z,1.69
2019-01-15T08:54:03.935Z,1.67
2019-01-15T08:55:14.041Z,1.72
2019-01-15T08:56:24.180Z,1.79
2019-01-15T08:57:34.291Z,1.74
2019-01-15T08:58:44.421Z,1.69
2019-01-15T08:59:54.532Z,1.72
2019-01-15T09:01:04.647Z,1.77
2019-01-15T09:02:14.765Z,1.73
2019-01-15T09:03:24.537Z,1.72
2019-01-15T09:04:34.704Z,1.84
2019-01-15T09:05:47.083Z,1.87
2019-01-15T09:06:57.213Z,1.9
2019-01-15T09:08:07.565Z,1.92
2019-01-15T09:09:17.705Z,1.94
2019-01-15T09:10:27.816Z,1.9
2019-01-15T09:11:37.957Z,1.94
2019-01-15T09:12:48.064Z,1.85
2019-01-15T09:13:58.230Z,1.95
2019-01-15T09:15:08.529Z,1.97
2019-01-15T09:16:18.661Z,1.98
2019-01-15T09:17:28.808Z,2.05
2019-01-15T09:18:38.965Z,2.06
2019-01-15T09:19:49.204Z,2.05
2019-01-15T09:20:59.312Z,2.05
2019-01-15T09:22:09.642Z,1.98
2019-01-15T09:23:19.792Z,2.09
2019-01-15T09:24:30.010Z,2.08
2019-01-15T09:25:40.146Z,2.08
2019-01-15T09:26:50.267Z,2.15
2019-01-15T09:28:00.371Z,2.18
2019-01-15T09:29:10.532Z,2.13
2019-01-15T09:30:20.939Z,2.23
2019-01-15T09:31:31.062Z,2.24
2019-01-15T09:32:40.882Z,2.34
2019-01-15T09:33:51.014Z,2.28
2019-01-15T09:35:01.154Z,2.24
2019-01-15T09:36:11.262Z,2.28
2019-01-15T09:37:21.381Z,2.31
2019-01-15T09:38:31.492Z,2.33
2019-01-15T09:39:41.597Z,2.42
2019-01-15T09:40:51.694Z,2.42
2019-01-15T09:42:01.571Z,2.34
2019-01-15T09:43:11.430Z,2.42
2019-01-15T09:44:21.532Z,2.46
2019-01-15T09:45:31.756Z,2.39
2019-01-15T09:46:41.887Z,2.44
2019-01-15T09:47:51.754Z,2.41
2019-01-15T09:49:01.858Z,2.44
2019-01-15T09:50:11.979Z,2.44
2019-01-15T09:51:22.111Z,2.48
2019-01-15T09:52:32.223Z,2.48
2019-01-15T09:53:41.872Z,2.52
2019-01-15T09:54:52.006Z,2.56
2019-01-15T09:56:02.123Z,2.55
2019-01-15T09:57:12.237Z,2.52
2019-01-15T09:58:22.570Z,2.55
2019-01-15T09:59:32.717Z,2.56
2019-01-15T10:00:42.830Z,2.67
2019-01-15T10:01:52.748Z,2.55
2019-01-15T10:03:02.875Z,2.62
2019-01-15T10:04:12.737Z,2.56
2019-01-15T10:05:22.872Z,2.56
2019-01-15T10:06:32.980Z,2.56
2019-01-15T10:07:43.107Z,2.64
2019-01-15T10:08:53.236Z,2.66
2019-01-15T10:10:03.350Z,2.66
2019-01-15T10:11:13.445Z,2.67
2019-01-15T10:12:23.346Z,2.69
2019-01-15T10:13:33.449Z,2.74
2019-01-15T10:14:46.373Z,2.79
2019-01-15T10:15:56.490Z,2.74
2019-01-15T10:17:06.615Z,2.79
2019-01-15T10:18:16.700Z,2.82
2019-01-15T10:19:26.793Z,2.85
2019-01-15T10:20:36.924Z,2.81
2019-01-15T10:21:47.030Z,2.81
2019-01-15T10:22:56.885Z,2.88
2019-01-15T10:24:06.997Z,2.82
2019-01-15T10:25:17.116Z,2.81
2019-01-15T10:26:27.244Z,2.89
2019-01-15T10:27:37.347Z,2.89
2019-01-15T10:28:47.464Z,2.96
2019-01-15T10:30:03.960Z,2.91
2019-01-15T10:31:14.080Z,2.91
2019-01-15T10:32:24.216Z,2.82
2019-01-15T10:33:34.339Z,2.89
2019-01-15T10:34:44.462Z,2.92
2019-01-15T10:35:54.563Z,2.91
2019-01-15T10:37:04.757Z,2.88
2019-01-15T10:38:14.884Z,2.88
2019-01-15T10:39:25.016Z,2.88
2019-01-15T10:40:36.007Z,2.82
2019-01-15T10:41:46.114Z,2.88
2019-01-15T10:42:56.248Z,2.87
2019-01-15T10:44:06.382Z,2.81
2019-01-15T10:45:16.582Z,2.74
2019-01-15T10:46:27.395Z,2.71
2019-01-15T10:47:39.836Z,2.71
2019-01-15T10:48:49.939Z,2.56
2019-01-15T10:50:00.090Z,2.63
2019-01-15T10:51:10.321Z,2.53
2019-01-15T10:52:20.433Z,2.53
2019-01-15T10:53:32.216Z,2.6
2019-01-15T10:54:42.323Z,2.55
2019-01-15T10:55:52.436Z,2.59
2019-01-15T10:57:02.545Z,2.6
2019-01-15T10:58:19.907Z,2.6
2019-01-15T10:59:30.048Z,2.6
2019-01-15T11:00:40.169Z,2.53
2019-01-15T11:01:50.020Z,2.52
2019-01-15T11:03:00.141Z,2.6
2019-01-15T11:04:10.253Z,2.59
2019-01-15T11:05:20.391Z,2.52
2019-01-15T11:06:30.511Z,2.48
2019-01-15T11:07:40.606Z,2.48
2019-01-15T11:08:50.684Z,2.51
2019-01-15T11:10:00.808Z,2.6
2019-01-15T11:11:10.908Z,2.56
2019-01-15T11:12:21.035Z,2.52
2019-01-15T11:13:31.148Z,2.56
2019-01-15T11:14:41.274Z,2.6
2019-01-15T11:15:51.377Z,2.6
2019-01-15T11:17:01.493Z,2.62
2019-01-15T11:18:11.605Z,2.64
2019-01-15T11:19:21.707Z,2.71
2019-01-15T11:20:31.827Z,2.67
2019-01-15T11:21:41.971Z,2.67
2019-01-15T11:22:52.094Z,2.7
2019-01-15T11:24:02.225Z,2.71
2019-01-15T11:25:13.832Z,2.74
2019-01-15T11:26:23.965Z,2.79
2019-01-15T11:27:34.109Z,2.77
2019-01-15T11:28:44.225Z,2.81
2019-01-15T11:29:54.347Z,2.74
2019-01-15T11:31:04.457Z,2.73
2019-01-15T11:32:15.686Z,2.74
2019-01-15T11:33:25.809Z,2.81
2019-01-15T11:34:35.982Z,2.81
2019-01-15T11:35:46.120Z,2.84
2019-01-15T11:36:56.226Z,2.79
2019-01-15T11:38:06.328Z,2.84
2019-01-15T11:39:16.490Z,2.91
2019-01-15T11:40:26.373Z,2.82
2019-01-15T11:41:36.507Z,2.85
2019-01-15T11:42:46.615Z,2.89
2019-01-15T11:43:56.712Z,2.89
2019-01-15T11:45:08.548Z,2.91
2019-01-15T11:46:18.655Z,2.84
2019-01-15T11:47:28.771Z,2.91
2019-01-15T11:48:38.891Z,2.97
2019-01-15T11:49:49.010Z,2.96
2019-01-15T11:50:58.877Z,3.04
2019-01-15T11:52:08.990Z,3
2019-01-15T11:53:19.091Z,3.04
2019-01-15T11:54:29.224Z,2.99
2019-01-15T11:55:39.325Z,3.04
2019-01-15T11:56:49.440Z,3.08
2019-01-15T11:57:59.583Z,3.06
2019-01-15T11:59:09.707Z,3.06
2019-01-15T12:00:19.825Z,3.08
2019-01-15T12:01:29.946Z,3.13
2019-01-15T12:02:40.055Z,3.04
2019-01-15T12:03:50.171Z,3.06
2019-01-15T12:05:00.272Z,3.13
2019-01-15T12:06:10.590Z,3.16
2019-01-15T12:07:20.708Z,3.11
2019-01-15T12:08:30.818Z,3.21
2019-01-15T12:09:41.143Z,3.18
2019-01-15T12:10:51.442Z,3.19
2019-01-15T12:12:01.547Z,3.29
2019-01-15T12:13:11.692Z,3.31
2019-01-15T12:14:21.865Z,3.24
2019-01-15T12:15:31.983Z,3.34
2019-01-15T12:16:42.081Z,3.28
2019-01-15T12:17:52.195Z,3.26
2019-01-15T12:19:02.295Z,3.29
2019-01-15T12:20:12.471Z,3.4
2019-01-15T12:21:22.612Z,3.37
2019-01-15T12:22:32.739Z,3.4
2019-01-15T12:23:42.672Z,3.47
2019-01-15T12:24:52.785Z,3.39
2019-01-15T12:26:02.912Z,3.46
2019-01-15T12:27:12.757Z,3.43
2019-01-15T12:28:22.855Z,3.37
2019-01-15T12:29:32.951Z,3.37
2019-01-15T12:30:42.821Z,3.4
2019-01-15T12:31:52.937Z,3.49
2019-01-15T12:33:03.063Z,3.58
2019-01-15T12:34:13.197Z,3.59
2019-01-15T12:35:23.307Z,3.58
2019-01-15T12:36:33.415Z,3.59
2019-01-15T12:37:43.196Z,3.65
2019-01-15T12:38:53.323Z,3.67
2019-01-15T12:40:03.446Z,3.65
2019-01-15T12:41:13.565Z,3.72
2019-01-15T12:42:23.741Z,3.58
2019-01-15T12:43:33.874Z,3.69
2019-01-15T12:44:44.014Z,3.68
2019-01-15T12:45:53.905Z,3.69
2019-01-15T12:47:04.236Z,3.58
2019-01-15T12:48:14.369Z,3.73
2019-01-15T12:49:24.510Z,3.67
2019-01-15T12:50:34.656Z,3.73
2019-01-15T12:51:44.790Z,3.69
2019-01-15T12:52:54.894Z,3.73
2019-01-15T12:54:05.032Z,3.72
2019-01-15T12:55:15.152Z,3.79
2019-01-15T12:56:25.273Z,3.61
2019-01-15T12:57:35.396Z,3.68
2019-01-15T12:58:45.576Z,3.69
2019-01-15T12:59:55.688Z,3.75
2019-01-15T13:01:05.876Z,3.72
2019-01-15T13:02:15.706Z,3.73
2019-01-15T13:03:25.816Z,3.68
2019-01-15T13:04:35.975Z,3.65
2019-01-15T13:05:46.128Z,3.68
2019-01-15T13:06:55.894Z,3.69
2019-01-15T13:08:06.006Z,3.65
2019-01-15T13:09:16.124Z,3.67
2019-01-15T13:10:26.241Z,3.72
2019-01-15T13:11:36.361Z,3.69
2019-01-15T13:12:46.494Z,3.69
2019-01-15T13:13:56.606Z,3.75
2019-01-15T13:15:06.721Z,3.73
2019-01-15T13:16:16.839Z,3.73
2019-01-15T13:17:27.048Z,3.76
2019-01-15T13:18:37.185Z,3.8
2019-01-15T13:19:47.074Z,3.79
2019-01-15T13:20:56.937Z,3.83
2019-01-15T13:22:07.057Z,3.77
2019-01-15T13:23:17.188Z,3.86
2019-01-15T13:24:27.350Z,3.77
2019-01-15T13:25:37.472Z,3.83
2019-01-15T13:26:47.608Z,3.87
2019-01-15T13:27:57.465Z,3.83
2019-01-15T13:29:07.602Z,3.79
2019-01-15T13:30:17.483Z,3.9
2019-01-15T13:31:27.726Z,3.87
2019-01-15T13:32:37.891Z,3.85
2019-01-15T13:33:48.037Z,3.9
2019-01-15T13:34:58.158Z,3.86
2019-01-15T13:36:08.284Z,3.86
2019-01-15T13:37:18.405Z,3.91
2019-01-15T13:38:28.536Z,3.8
2019-01-15T13:39:38.319Z,3.8
2019-01-15T13:40:48.547Z,3.8
2019-01-15T13:41:58.677Z,3.83
2019-01-15T13:43:08.789Z,3.87
2019-01-15T13:44:18.922Z,3.86
2019-01-15T13:45:29.079Z,3.93
2019-01-15T13:46:39.206Z,3.93
2019-01-15T13:47:49.329Z,3.95
2019-01-15T13:48:59.205Z,3.95
2019-01-15T13:50:09.077Z,3.87
2019-01-15T13:51:19.226Z,3.94
2019-01-15T13:52:29.359Z,3.97
2019-01-15T13:53:39.485Z,3.94
2019-01-15T13:54:49.593Z,3.94
2019-01-15T13:55:59.735Z,3.97
2019-01-15T13:57:09.844Z,3.95
2019-01-15T13:58:19.982Z,3.91
2019-01-15T13:59:30.104Z,3.91
2019-01-15T14:00:40.248Z,3.87
2019-01-15T14:01:50.383Z,3.94
2019-01-15T14:03:00.519Z,3.9
2019-01-15T14:04:10.663Z,3.97
2019-01-15T14:05:20.789Z,3.95
2019-01-15T14:06:30.914Z,3.98
2019-01-15T14:07:40.800Z,4.05
2019-01-15T14:08:50.935Z,4.03
2019-01-15T14:10:01.064Z,4.04
2019-01-15T14:11:11.178Z,4.04
2019-01-15T14:12:21.294Z,4
2019-01-15T14:13:31.448Z,4.08
2019-01-15T14:14:41.575Z,4.04
2019-01-15T14:15:54.032Z,4.03
2019-01-15T14:17:04.153Z,4
2019-01-15T14:18:13.921Z,4.03
2019-01-15T14:19:24.051Z,4.03
2019-01-15T14:20:34.181Z,4.16
2019-01-15T14:21:43.684Z,4.11
2019-01-15T14:22:53.817Z,4.22
2019-01-15T14:24:03.979Z,4.2
2019-01-15T14:25:14.097Z,4.18
2019-01-15T14:26:24.235Z,4.25
2019-01-15T14:27:34.374Z,4.25
2019-01-15T14:28:44.519Z,4.19
2019-01-15T14:29:54.662Z,4.25
2019-01-15T14:31:05.520Z,4.18
2019-01-15T14:32:15.974Z,4.23
2019-01-15T14:33:26.099Z,4.25
2019-01-15T14:34:35.972Z,4.2
2019-01-15T14:35:46.116Z,4.2
2019-01-15T14:36:56.246Z,4.18
2019-01-15T14:38:06.463Z,4.22
2019-01-15T14:39:16.613Z,4.27
2019-01-15T14:40:26.767Z,4.23
2019-01-15T14:41:36.892Z,4.27
2019-01-15T14:42:48.394Z,4.28
2019-01-15T14:43:58.530Z,4.28
2019-01-15T14:45:08.659Z,4.23
2019-01-15T14:46:18.816Z,4.23
2019-01-15T14:47:28.576Z,4.33
2019-01-15T14:48:38.740Z,4.37
2019-01-15T14:49:48.873Z,4.31
2019-01-15T14:50:59.027Z,4.34
2019-01-15T14:52:09.157Z,4.4
2019-01-15T14:53:19.280Z,4.33
2019-01-15T14:54:29.238Z,4.38
2019-01-15T14:55:39.437Z,4.4
2019-01-15T14:56:49.559Z,4.28
2019-01-15T14:57:59.679Z,4.3
2019-01-15T14:59:09.822Z,4.3
2019-01-15T15:00:20.929Z,4.36
2019-01-15T15:01:31.080Z,4.37
2019-01-15T15:02:41.197Z,4.3
2019-01-15T15:03:51.313Z,4.36
2019-01-15T15:05:00.864Z,4.33
2019-01-15T15:06:11.008Z,4.37
2019-01-15T15:07:21.164Z,4.4
2019-01-15T15:08:31.349Z,4.43
2019-01-15T15:09:41.524Z,4.31
2019-01-15T15:10:51.655Z,4.46
2019-01-15T15:12:01.792Z,4.41
2019-01-15T15:13:11.931Z,4.43
2019-01-15T15:14:22.052Z,4.46
2019-01-15T15:15:32.209Z,4.43
2019-01-15T15:16:42.365Z,4.4
2019-01-15T15:17:52.504Z,4.4
2019-01-15T15:19:02.635Z,4.46
2019-01-15T15:20:12.758Z,4.38
2019-01-15T15:21:22.906Z,4.37
2019-01-15T15:22:32.656Z,4.4
2019-01-15T15:23:42.819Z,4.41
2019-01-15T15:24:52.947Z,4.41
2019-01-15T15:26:03.098Z,4.4
2019-01-15T15:27:13.232Z,4.43
2019-01-15T15:28:23.392Z,4.37
2019-01-15T15:29:33.556Z,4.41
2019-01-15T15:30:43.695Z,4.4
2019-01-15T15:31:53.827Z,4.41
2019-01-15T15:33:03.970Z,4.46
2019-01-15T15:34:13.723Z,4.53
2019-01-15T15:35:23.869Z,4.53
2019-01-15T15:36:34.010Z,4.46
2019-01-15T15:37:44.165Z,4.47
2019-01-15T15:38:54.360Z,4.46
2019-01-15T15:40:04.244Z,4.41